sensor_id;sensor_type;location;lat;lon;timestamp;P1;durP1;ratioP1;P2;durP2;ratioP2
22270;SDS011;11304;53.520;10.104;2022-10-31T00:00:22;13.18;;;11.38;;
22270;SDS011;11304;53.520;10.104;2022-10-31T00:02:48;14.43;;;11.10;;
22270;SDS011;11304;53.520;10.104;2022-10-31T00:05:14;12.65;;;11.00;;
22270;SDS011;11304;53.520;10.104;2022-10-31T00:07:40;14.75;;;12.10;;
22270;SDS011;11304;53.520;10.104;2022-10-31T00:10:07;13.55;;;12.10;;
22270;SDS011;11304;53.520;10.104;2022-10-31T00:12:33;15.20;;;13.38;;
22270;SDS011;11304;53.520;10.104;2022-10-31T00:14:59;15.38;;;12.02;;
22270;SDS011;11304;53.520;10.104;2022-10-31T00:17:25;16.77;;;11.15;;
22270;SDS011;11304;53.520;10.104;2022-10-31T00:19:51;10.75;;;9.50;;
22270;SDS011;11304;53.520;10.104;2022-10-31T00:22:17;10.60;;;9.32;;
22270;SDS011;11304;53.520;10.104;2022-10-31T00:24:43;13.80;;;11.30;;
22270;SDS011;11304;53.520;10.104;2022-10-31T00:27:10;12.77;;;11.10;;
22270;SDS011;11304;53.520;10.104;2022-10-31T00:29:36;15.40;;;12.55;;
22270;SDS011;11304;53.520;10.104;2022-10-31T00:32:02;14.98;;;11.98;;
22270;SDS011;11304;53.520;10.104;2022-10-31T00:34:28;14.90;;;12.15;;
22270;SDS011;11304;53.520;10.104;2022-10-31T00:36:54;11.95;;;10.75;;
22270;SDS011;11304;53.520;10.104;2022-10-31T00:39:20;12.13;;;10.18;;
22270;SDS011;11304;53.520;10.104;2022-10-31T00:41:46;11.70;;;10.38;;
22270;SDS011;11304;53.520;10.104;2022-10-31T00:44:12;12.55;;;11.10;;
22270;SDS011;11304;53.520;10.104;2022-10-31T00:46:38;13.38;;;11.27;;
22270;SDS011;11304;53.520;10.104;2022-10-31T00:49:04;12.00;;;10.80;;
22270;SDS011;11304;53.520;10.104;2022-10-31T00:51:30;10.85;;;9.75;;
22270;SDS011;11304;53.520;10.104;2022-10-31T00:53:56;10.35;;;9.25;;
22270;SDS011;11304;53.520;10.104;2022-10-31T00:56:23;10.68;;;8.45;;
22270;SDS011;11304;53.520;10.104;2022-10-31T00:58:49;9.35;;;8.48;;
22270;SDS011;11304;53.520;10.104;2022-10-31T01:01:15;6.85;;;6.18;;
22270;SDS011;11304;53.520;10.104;2022-10-31T01:03:41;9.68;;;7.00;;
22270;SDS011;11304;53.520;10.104;2022-10-31T01:06:08;9.38;;;8.48;;
22270;SDS011;11304;53.520;10.104;2022-10-31T01:08:35;9.30;;;8.40;;
22270;SDS011;11304;53.520;10.104;2022-10-31T01:11:11;9.65;;;8.75;;
22270;SDS011;11304;53.520;10.104;2022-10-31T01:13:37;11.90;;;10.57;;
22270;SDS011;11304;53.520;10.104;2022-10-31T01:16:04;16.13;;;11.57;;
22270;SDS011;11304;53.520;10.104;2022-10-31T01:18:31;12.45;;;11.15;;
22270;SDS011;11304;53.520;10.104;2022-10-31T01:21:02;13.45;;;11.98;;
22270;SDS011;11304;53.520;10.104;2022-10-31T01:23:29;15.38;;;12.40;;
22270;SDS011;11304;53.520;10.104;2022-10-31T01:28:33;14.80;;;11.45;;
22270;SDS011;11304;53.520;10.104;2022-10-31T01:31:00;13.35;;;11.40;;
22270;SDS011;11304;53.520;10.104;2022-10-31T01:33:26;14.00;;;11.18;;
22270;SDS011;11304;53.520;10.104;2022-10-31T01:35:53;11.63;;;10.43;;
22270;SDS011;11304;53.520;10.104;2022-10-31T01:38:19;10.75;;;9.48;;
22270;SDS011;11304;53.520;10.104;2022-10-31T01:40:45;10.82;;;9.30;;
22270;SDS011;11304;53.520;10.104;2022-10-31T01:43:12;11.50;;;9.05;;
22270;SDS011;11304;53.520;10.104;2022-10-31T01:45:39;9.20;;;8.27;;
22270;SDS011;11304;53.520;10.104;2022-10-31T01:48:06;9.07;;;8.15;;
22270;SDS011;11304;53.520;10.104;2022-10-31T01:50:37;11.65;;;8.18;;
22270;SDS011;11304;53.520;10.104;2022-10-31T01:53:05;8.48;;;7.65;;
22270;SDS011;11304;53.520;10.104;2022-10-31T01:55:32;7.57;;;6.68;;
22270;SDS011;11304;53.520;10.104;2022-10-31T01:58:04;7.22;;;6.43;;
22270;SDS011;11304;53.520;10.104;2022-10-31T02:00:31;7.65;;;6.80;;
22270;SDS011;11304;53.520;10.104;2022-10-31T02:02:58;7.32;;;6.63;;
22270;SDS011;11304;53.520;10.104;2022-10-31T02:05:25;9.77;;;7.40;;
22270;SDS011;11304;53.520;10.104;2022-10-31T02:07:53;9.27;;;8.27;;
22270;SDS011;11304;53.520;10.104;2022-10-31T02:10:21;10.00;;;7.65;;
22270;SDS011;11304;53.520;10.104;2022-10-31T02:12:48;9.65;;;8.30;;
22270;SDS011;11304;53.520;10.104;2022-10-31T02:15:16;8.57;;;7.68;;
22270;SDS011;11304;53.520;10.104;2022-10-31T02:17:42;7.00;;;6.30;;
22270;SDS011;11304;53.520;10.104;2022-10-31T02:20:16;6.80;;;6.00;;
22270;SDS011;11304;53.520;10.104;2022-10-31T02:30:23;8.40;;;5.97;;
22270;SDS011;11304;53.520;10.104;2022-10-31T02:40:34;6.68;;;5.95;;
22270;SDS011;11304;53.520;10.104;2022-10-31T02:46:01;8.00;;;6.45;;
22270;SDS011;11304;53.520;10.104;2022-10-31T02:48:28;7.82;;;6.47;;
22270;SDS011;11304;53.520;10.104;2022-10-31T02:50:58;6.80;;;5.43;;
22270;SDS011;11304;53.520;10.104;2022-10-31T02:53:25;6.32;;;5.55;;
22270;SDS011;11304;53.520;10.104;2022-10-31T02:58:24;6.72;;;6.03;;
22270;SDS011;11304;53.520;10.104;2022-10-31T03:03:19;6.47;;;5.88;;
22270;SDS011;11304;53.520;10.104;2022-10-31T03:05:55;7.03;;;6.30;;
22270;SDS011;11304;53.520;10.104;2022-10-31T03:18:46;7.70;;;6.50;;
22270;SDS011;11304;53.520;10.104;2022-10-31T03:21:23;7.05;;;6.35;;
22270;SDS011;11304;53.520;10.104;2022-10-31T03:23:53;8.95;;;6.40;;
22270;SDS011;11304;53.520;10.104;2022-10-31T03:26:20;7.60;;;6.80;;
22270;SDS011;11304;53.520;10.104;2022-10-31T03:28:51;7.45;;;6.55;;
22270;SDS011;11304;53.520;10.104;2022-10-31T03:31:19;9.57;;;6.72;;
22270;SDS011;11304;53.520;10.104;2022-10-31T03:33:46;8.15;;;7.22;;
22270;SDS011;11304;53.520;10.104;2022-10-31T03:36:13;10.32;;;6.57;;
22270;SDS011;11304;53.520;10.104;2022-10-31T03:38:40;13.52;;;8.65;;
22270;SDS011;11304;53.520;10.104;2022-10-31T03:41:07;13.45;;;10.30;;
22270;SDS011;11304;53.520;10.104;2022-10-31T03:43:37;11.15;;;9.00;;
22270;SDS011;11304;53.520;10.104;2022-10-31T03:46:06;14.20;;;10.55;;
22270;SDS011;11304;53.520;10.104;2022-10-31T03:48:32;17.92;;;10.55;;
22270;SDS011;11304;53.520;10.104;2022-10-31T03:51:05;10.35;;;8.88;;
22270;SDS011;11304;53.520;10.104;2022-10-31T04:01:26;11.05;;;8.40;;
22270;SDS011;11304;53.520;10.104;2022-10-31T04:03:53;13.30;;;9.85;;
22270;SDS011;11304;53.520;10.104;2022-10-31T04:06:19;14.80;;;11.40;;
22270;SDS011;11304;53.520;10.104;2022-10-31T04:08:57;16.40;;;9.95;;
22270;SDS011;11304;53.520;10.104;2022-10-31T04:11:25;20.48;;;12.63;;
22270;SDS011;11304;53.520;10.104;2022-10-31T04:16:19;10.90;;;9.40;;
22270;SDS011;11304;53.520;10.104;2022-10-31T04:18:46;11.00;;;9.10;;
22270;SDS011;11304;53.520;10.104;2022-10-31T04:21:12;15.35;;;8.32;;
22270;SDS011;11304;53.520;10.104;2022-10-31T04:23:39;12.00;;;9.63;;
22270;SDS011;11304;53.520;10.104;2022-10-31T04:26:05;31.38;;;11.30;;
22270;SDS011;11304;53.520;10.104;2022-10-31T04:28:31;14.63;;;10.50;;
22270;SDS011;11304;53.520;10.104;2022-10-31T04:30:58;22.50;;;14.93;;
22270;SDS011;11304;53.520;10.104;2022-10-31T04:33:24;17.88;;;12.43;;
22270;SDS011;11304;53.520;10.104;2022-10-31T04:35:50;34.00;;;20.27;;
22270;SDS011;11304;53.520;10.104;2022-10-31T04:38:17;18.05;;;11.75;;
22270;SDS011;11304;53.520;10.104;2022-10-31T04:40:44;21.52;;;14.05;;
22270;SDS011;11304;53.520;10.104;2022-10-31T04:43:10;38.08;;;23.95;;
22270;SDS011;11304;53.520;10.104;2022-10-31T04:45:36;38.25;;;22.65;;
22270;SDS011;11304;53.520;10.104;2022-10-31T04:48:03;52.65;;;27.67;;
22270;SDS011;11304;53.520;10.104;2022-10-31T04:50:29;69.95;;;38.90;;
22270;SDS011;11304;53.520;10.104;2022-10-31T04:52:55;79.88;;;42.13;;
22270;SDS011;11304;53.520;10.104;2022-10-31T04:55:21;88.57;;;46.05;;
22270;SDS011;11304;53.520;10.104;2022-10-31T04:57:48;110.15;;;53.28;;
22270;SDS011;11304;53.520;10.104;2022-10-31T05:00:16;88.97;;;44.13;;
22270;SDS011;11304;53.520;10.104;2022-10-31T05:02:46;123.00;;;58.92;;
22270;SDS011;11304;53.520;10.104;2022-10-31T05:05:13;125.88;;;59.67;;
22270;SDS011;11304;53.520;10.104;2022-10-31T05:07:43;110.85;;;56.15;;
22270;SDS011;11304;53.520;10.104;2022-10-31T05:10:10;117.60;;;56.67;;
22270;SDS011;11304;53.520;10.104;2022-10-31T05:12:37;116.75;;;55.80;;
22270;SDS011;11304;53.520;10.104;2022-10-31T05:15:03;113.00;;;54.65;;
22270;SDS011;11304;53.520;10.104;2022-10-31T05:17:30;96.45;;;49.90;;
22270;SDS011;11304;53.520;10.104;2022-10-31T05:19:56;92.25;;;47.97;;
22270;SDS011;11304;53.520;10.104;2022-10-31T05:22:22;101.45;;;50.55;;
22270;SDS011;11304;53.520;10.104;2022-10-31T05:24:49;104.80;;;50.10;;
22270;SDS011;11304;53.520;10.104;2022-10-31T05:27:15;99.97;;;51.80;;
22270;SDS011;11304;53.520;10.104;2022-10-31T05:29:41;97.47;;;48.22;;
22270;SDS011;11304;53.520;10.104;2022-10-31T05:32:07;89.65;;;49.63;;
22270;SDS011;11304;53.520;10.104;2022-10-31T05:34:33;89.88;;;46.70;;
22270;SDS011;11304;53.520;10.104;2022-10-31T05:36:59;94.00;;;48.30;;
22270;SDS011;11304;53.520;10.104;2022-10-31T05:39:25;82.40;;;43.92;;
22270;SDS011;11304;53.520;10.104;2022-10-31T05:41:51;102.72;;;50.50;;
22270;SDS011;11304;53.520;10.104;2022-10-31T05:44:17;97.80;;;47.90;;
22270;SDS011;11304;53.520;10.104;2022-10-31T05:46:43;99.30;;;48.88;;
22270;SDS011;11304;53.520;10.104;2022-10-31T05:49:11;98.10;;;47.65;;
22270;SDS011;11304;53.520;10.104;2022-10-31T05:51:37;102.68;;;49.90;;
22270;SDS011;11304;53.520;10.104;2022-10-31T05:54:03;86.80;;;47.05;;
22270;SDS011;11304;53.520;10.104;2022-10-31T05:56:30;79.13;;;42.78;;
22270;SDS011;11304;53.520;10.104;2022-10-31T05:58:56;72.40;;;40.05;;
22270;SDS011;11304;53.520;10.104;2022-10-31T06:01:22;66.50;;;39.58;;
22270;SDS011;11304;53.520;10.104;2022-10-31T06:03:48;72.40;;;39.80;;
22270;SDS011;11304;53.520;10.104;2022-10-31T06:06:14;80.03;;;42.97;;
22270;SDS011;11304;53.520;10.104;2022-10-31T06:08:40;72.82;;;41.67;;
22270;SDS011;11304;53.520;10.104;2022-10-31T06:11:06;77.32;;;42.67;;
22270;SDS011;11304;53.520;10.104;2022-10-31T06:13:32;79.32;;;42.95;;
22270;SDS011;11304;53.520;10.104;2022-10-31T06:15:58;77.38;;;42.10;;
22270;SDS011;11304;53.520;10.104;2022-10-31T06:18:24;88.45;;;45.65;;
22270;SDS011;11304;53.520;10.104;2022-10-31T06:20:51;83.88;;;44.35;;
22270;SDS011;11304;53.520;10.104;2022-10-31T06:23:17;93.55;;;47.72;;
22270;SDS011;11304;53.520;10.104;2022-10-31T06:25:43;94.78;;;45.92;;
22270;SDS011;11304;53.520;10.104;2022-10-31T06:28:09;120.00;;;51.67;;
22270;SDS011;11304;53.520;10.104;2022-10-31T06:30:35;112.95;;;50.63;;
22270;SDS011;11304;53.520;10.104;2022-10-31T06:33:04;102.70;;;46.92;;
22270;SDS011;11304;53.520;10.104;2022-10-31T06:35:30;101.60;;;47.13;;
22270;SDS011;11304;53.520;10.104;2022-10-31T06:37:56;102.88;;;45.05;;
22270;SDS011;11304;53.520;10.104;2022-10-31T06:40:23;91.25;;;41.95;;
22270;SDS011;11304;53.520;10.104;2022-10-31T06:42:58;100.30;;;43.50;;
22270;SDS011;11304;53.520;10.104;2022-10-31T06:45:25;89.47;;;42.47;;
22270;SDS011;11304;53.520;10.104;2022-10-31T06:47:52;105.85;;;46.15;;
22270;SDS011;11304;53.520;10.104;2022-10-31T06:50:18;79.95;;;39.55;;
22270;SDS011;11304;53.520;10.104;2022-10-31T06:52:49;81.00;;;39.17;;
22270;SDS011;11304;53.520;10.104;2022-10-31T06:55:15;96.72;;;42.72;;
22270;SDS011;11304;53.520;10.104;2022-10-31T06:57:41;89.60;;;42.03;;
22270;SDS011;11304;53.520;10.104;2022-10-31T07:00:08;83.15;;;38.88;;
22270;SDS011;11304;53.520;10.104;2022-10-31T07:02:34;87.10;;;41.50;;
22270;SDS011;11304;53.520;10.104;2022-10-31T07:05:00;87.75;;;40.85;;
22270;SDS011;11304;53.520;10.104;2022-10-31T07:07:26;75.13;;;37.10;;
22270;SDS011;11304;53.520;10.104;2022-10-31T07:09:52;86.55;;;40.50;;
22270;SDS011;11304;53.520;10.104;2022-10-31T07:12:18;76.97;;;38.30;;
22270;SDS011;11304;53.520;10.104;2022-10-31T07:14:44;82.65;;;39.67;;
22270;SDS011;11304;53.520;10.104;2022-10-31T07:17:10;73.18;;;37.47;;
22270;SDS011;11304;53.520;10.104;2022-10-31T07:19:36;76.07;;;39.45;;
22270;SDS011;11304;53.520;10.104;2022-10-31T07:22:02;80.80;;;40.33;;
22270;SDS011;11304;53.520;10.104;2022-10-31T07:24:28;88.30;;;42.42;;
22270;SDS011;11304;53.520;10.104;2022-10-31T07:26:55;95.57;;;45.35;;
22270;SDS011;11304;53.520;10.104;2022-10-31T07:29:21;90.82;;;42.65;;
22270;SDS011;11304;53.520;10.104;2022-10-31T07:31:47;91.55;;;45.35;;
22270;SDS011;11304;53.520;10.104;2022-10-31T07:34:13;86.18;;;44.03;;
22270;SDS011;11304;53.520;10.104;2022-10-31T07:36:39;76.90;;;38.88;;
22270;SDS011;11304;53.520;10.104;2022-10-31T07:39:05;86.07;;;38.88;;
22270;SDS011;11304;53.520;10.104;2022-10-31T07:41:31;94.40;;;43.30;;
22270;SDS011;11304;53.520;10.104;2022-10-31T07:43:58;81.28;;;39.58;;
22270;SDS011;11304;53.520;10.104;2022-10-31T07:46:24;80.20;;;39.05;;
22270;SDS011;11304;53.520;10.104;2022-10-31T07:48:50;120.28;;;49.35;;
22270;SDS011;11304;53.520;10.104;2022-10-31T07:51:16;108.75;;;47.30;;
22270;SDS011;11304;53.520;10.104;2022-10-31T07:53:42;111.88;;;47.85;;
22270;SDS011;11304;53.520;10.104;2022-10-31T07:56:08;100.43;;;45.20;;
22270;SDS011;11304;53.520;10.104;2022-10-31T07:58:34;111.85;;;48.53;;
22270;SDS011;11304;53.520;10.104;2022-10-31T08:01:00;93.22;;;43.70;;
22270;SDS011;11304;53.520;10.104;2022-10-31T08:03:26;90.72;;;42.55;;
22270;SDS011;11304;53.520;10.104;2022-10-31T08:05:52;94.75;;;42.30;;
22270;SDS011;11304;53.520;10.104;2022-10-31T08:08:18;82.68;;;42.58;;
22270;SDS011;11304;53.520;10.104;2022-10-31T08:10:44;76.95;;;38.30;;
22270;SDS011;11304;53.520;10.104;2022-10-31T08:13:11;83.85;;;40.58;;
22270;SDS011;11304;53.520;10.104;2022-10-31T08:15:37;86.80;;;38.45;;
22270;SDS011;11304;53.520;10.104;2022-10-31T08:18:06;95.68;;;41.83;;
22270;SDS011;11304;53.520;10.104;2022-10-31T08:20:36;71.28;;;36.65;;
22270;SDS011;11304;53.520;10.104;2022-10-31T08:23:03;86.78;;;37.47;;
22270;SDS011;11304;53.520;10.104;2022-10-31T08:25:30;74.43;;;38.13;;
22270;SDS011;11304;53.520;10.104;2022-10-31T08:27:56;81.43;;;37.90;;
22270;SDS011;11304;53.520;10.104;2022-10-31T08:30:25;79.07;;;37.35;;
22270;SDS011;11304;53.520;10.104;2022-10-31T08:32:58;70.38;;;36.95;;
22270;SDS011;11304;53.520;10.104;2022-10-31T08:35:24;64.32;;;32.28;;
22270;SDS011;11304;53.520;10.104;2022-10-31T08:37:56;75.45;;;34.83;;
22270;SDS011;11304;53.520;10.104;2022-10-31T08:40:22;72.13;;;34.70;;
22270;SDS011;11304;53.520;10.104;2022-10-31T08:42:55;71.10;;;33.15;;
22270;SDS011;11304;53.520;10.104;2022-10-31T08:45:21;78.35;;;36.83;;
22270;SDS011;11304;53.520;10.104;2022-10-31T08:47:47;72.57;;;35.38;;
22270;SDS011;11304;53.520;10.104;2022-10-31T08:50:14;71.43;;;35.15;;
22270;SDS011;11304;53.520;10.104;2022-10-31T08:52:40;69.13;;;33.35;;
22270;SDS011;11304;53.520;10.104;2022-10-31T08:55:06;72.60;;;35.88;;
22270;SDS011;11304;53.520;10.104;2022-10-31T08:57:32;67.20;;;32.63;;
22270;SDS011;11304;53.520;10.104;2022-10-31T08:59:58;66.85;;;32.63;;
22270;SDS011;11304;53.520;10.104;2022-10-31T09:02:24;67.80;;;31.48;;
22270;SDS011;11304;53.520;10.104;2022-10-31T09:04:50;62.53;;;30.90;;
22270;SDS011;11304;53.520;10.104;2022-10-31T09:07:16;71.80;;;32.50;;
22270;SDS011;11304;53.520;10.104;2022-10-31T09:09:42;59.95;;;30.15;;
22270;SDS011;11304;53.520;10.104;2022-10-31T09:12:08;59.83;;;29.27;;
22270;SDS011;11304;53.520;10.104;2022-10-31T09:14:34;60.85;;;29.27;;
22270;SDS011;11304;53.520;10.104;2022-10-31T09:17:00;65.72;;;29.58;;
22270;SDS011;11304;53.520;10.104;2022-10-31T09:19:26;59.25;;;28.23;;
22270;SDS011;11304;53.520;10.104;2022-10-31T09:21:53;53.80;;;27.48;;
22270;SDS011;11304;53.520;10.104;2022-10-31T09:24:19;61.88;;;29.98;;
22270;SDS011;11304;53.520;10.104;2022-10-31T09:26:45;57.00;;;29.02;;
22270;SDS011;11304;53.520;10.104;2022-10-31T09:29:11;58.10;;;28.35;;
22270;SDS011;11304;53.520;10.104;2022-10-31T09:31:37;68.10;;;32.83;;
22270;SDS011;11304;53.520;10.104;2022-10-31T09:34:03;65.18;;;31.55;;
22270;SDS011;11304;53.520;10.104;2022-10-31T09:36:29;58.97;;;29.90;;
22270;SDS011;11304;53.520;10.104;2022-10-31T09:38:55;57.42;;;29.38;;
22270;SDS011;11304;53.520;10.104;2022-10-31T09:41:28;51.25;;;26.30;;
22270;SDS011;11304;53.520;10.104;2022-10-31T09:46:26;55.50;;;30.10;;
22270;SDS011;11304;53.520;10.104;2022-10-31T09:51:40;62.78;;;30.48;;
22270;SDS011;11304;53.520;10.104;2022-10-31T09:56:33;53.38;;;29.75;;
22270;SDS011;11304;53.520;10.104;2022-10-31T09:59:01;51.22;;;29.55;;
22270;SDS011;11304;53.520;10.104;2022-10-31T10:04:44;42.58;;;25.95;;
22270;SDS011;11304;53.520;10.104;2022-10-31T10:07:02;47.08;;;28.15;;
22270;SDS011;11304;53.520;10.104;2022-10-31T10:09:31;49.47;;;27.13;;
22270;SDS011;11304;53.520;10.104;2022-10-31T10:12:04;39.47;;;25.23;;
22270;SDS011;11304;53.520;10.104;2022-10-31T10:14:46;42.97;;;26.50;;
22270;SDS011;11304;53.520;10.104;2022-10-31T10:17:25;32.80;;;23.00;;
22270;SDS011;11304;53.520;10.104;2022-10-31T10:27:57;41.25;;;25.58;;
22270;SDS011;11304;53.520;10.104;2022-10-31T10:30:43;39.78;;;24.65;;
22270;SDS011;11304;53.520;10.104;2022-10-31T10:33:11;44.30;;;26.63;;
22270;SDS011;11304;53.520;10.104;2022-10-31T10:35:39;41.40;;;26.27;;
22270;SDS011;11304;53.520;10.104;2022-10-31T10:40:35;40.00;;;25.75;;
22270;SDS011;11304;53.520;10.104;2022-10-31T10:43:17;46.40;;;27.08;;
22270;SDS011;11304;53.520;10.104;2022-10-31T10:45:44;44.28;;;26.42;;
22270;SDS011;11304;53.520;10.104;2022-10-31T10:48:35;43.65;;;27.17;;
22270;SDS011;11304;53.520;10.104;2022-10-31T10:51:03;35.90;;;24.20;;
22270;SDS011;11304;53.520;10.104;2022-10-31T10:56:09;37.00;;;25.02;;
22270;SDS011;11304;53.520;10.104;2022-10-31T10:58:38;38.70;;;25.35;;
22270;SDS011;11304;53.520;10.104;2022-10-31T11:01:09;34.17;;;23.10;;
22270;SDS011;11304;53.520;10.104;2022-10-31T11:03:36;38.40;;;24.65;;
22270;SDS011;11304;53.520;10.104;2022-10-31T11:06:02;35.95;;;24.17;;
22270;SDS011;11304;53.520;10.104;2022-10-31T11:13:24;36.15;;;23.50;;
22270;SDS011;11304;53.520;10.104;2022-10-31T11:20:50;36.25;;;23.52;;
22270;SDS011;11304;53.520;10.104;2022-10-31T11:23:20;34.17;;;23.30;;
22270;SDS011;11304;53.520;10.104;2022-10-31T11:28:22;34.78;;;23.67;;
22270;SDS011;11304;53.520;10.104;2022-10-31T11:33:16;35.60;;;24.92;;
22270;SDS011;11304;53.520;10.104;2022-10-31T11:38:12;38.33;;;26.83;;
22270;SDS011;11304;53.520;10.104;2022-10-31T11:40:44;39.25;;;28.13;;
22270;SDS011;11304;53.520;10.104;2022-10-31T11:43:17;38.50;;;26.10;;
22270;SDS011;11304;53.520;10.104;2022-10-31T11:45:43;33.67;;;24.85;;
22270;SDS011;11304;53.520;10.104;2022-10-31T11:48:17;36.15;;;25.48;;
22270;SDS011;11304;53.520;10.104;2022-10-31T11:50:47;34.42;;;23.98;;
22270;SDS011;11304;53.520;10.104;2022-10-31T11:53:18;38.40;;;27.95;;
22270;SDS011;11304;53.520;10.104;2022-10-31T11:55:45;38.20;;;26.80;;
22270;SDS011;11304;53.520;10.104;2022-10-31T11:58:21;36.80;;;25.10;;
22270;SDS011;11304;53.520;10.104;2022-10-31T12:00:52;35.13;;;23.83;;
22270;SDS011;11304;53.520;10.104;2022-10-31T12:08:29;31.52;;;21.83;;
22270;SDS011;11304;53.520;10.104;2022-10-31T12:26:49;27.92;;;20.48;;
22270;SDS011;11304;53.520;10.104;2022-10-31T12:32:21;25.90;;;19.42;;
22270;SDS011;11304;53.520;10.104;2022-10-31T12:40:12;30.52;;;21.38;;
22270;SDS011;11304;53.520;10.104;2022-10-31T12:45:14;28.25;;;18.42;;
22270;SDS011;11304;53.520;10.104;2022-10-31T12:47:56;24.55;;;18.40;;
22270;SDS011;11304;53.520;10.104;2022-10-31T12:50:36;24.05;;;16.30;;
22270;SDS011;11304;53.520;10.104;2022-10-31T13:00:31;23.38;;;16.50;;
22270;SDS011;11304;53.520;10.104;2022-10-31T13:03:17;28.33;;;17.92;;
22270;SDS011;11304;53.520;10.104;2022-10-31T13:05:46;24.08;;;16.88;;
22270;SDS011;11304;53.520;10.104;2022-10-31T13:10:42;27.63;;;17.92;;
22270;SDS011;11304;53.520;10.104;2022-10-31T13:13:14;26.20;;;16.67;;
22270;SDS011;11304;53.520;10.104;2022-10-31T13:16:16;21.88;;;16.08;;
22270;SDS011;11304;53.520;10.104;2022-10-31T13:18:35;21.65;;;14.27;;
22270;SDS011;11304;53.520;10.104;2022-10-31T13:21:05;19.73;;;13.07;;
22270;SDS011;11304;53.520;10.104;2022-10-31T13:23:34;16.17;;;11.88;;
22270;SDS011;11304;53.520;10.104;2022-10-31T13:26:08;21.83;;;12.75;;
22270;SDS011;11304;53.520;10.104;2022-10-31T13:31:09;21.40;;;14.23;;
22270;SDS011;11304;53.520;10.104;2022-10-31T13:45:55;22.98;;;15.95;;
22270;SDS011;11304;53.520;10.104;2022-10-31T13:53:34;22.92;;;16.13;;
22270;SDS011;11304;53.520;10.104;2022-10-31T13:56:13;25.20;;;16.70;;
22270;SDS011;11304;53.520;10.104;2022-10-31T13:58:41;25.67;;;16.30;;
22270;SDS011;11304;53.520;10.104;2022-10-31T14:01:21;20.75;;;15.25;;
22270;SDS011;11304;53.520;10.104;2022-10-31T14:03:55;20.48;;;14.95;;
22270;SDS011;11304;53.520;10.104;2022-10-31T14:06:22;20.90;;;15.35;;
22270;SDS011;11304;53.520;10.104;2022-10-31T14:08:50;21.63;;;14.88;;
22270;SDS011;11304;53.520;10.104;2022-10-31T14:11:20;24.75;;;14.45;;
22270;SDS011;11304;53.520;10.104;2022-10-31T14:13:47;26.77;;;15.07;;
22270;SDS011;11304;53.520;10.104;2022-10-31T14:16:18;21.20;;;14.48;;
22270;SDS011;11304;53.520;10.104;2022-10-31T14:18:46;18.98;;;14.45;;
22270;SDS011;11304;53.520;10.104;2022-10-31T14:21:15;21.05;;;14.35;;
22270;SDS011;11304;53.520;10.104;2022-10-31T14:23:41;20.40;;;13.75;;
22270;SDS011;11304;53.520;10.104;2022-10-31T14:28:44;19.95;;;13.35;;
22270;SDS011;11304;53.520;10.104;2022-10-31T14:32:14;18.20;;;12.93;;
22270;SDS011;11304;53.520;10.104;2022-10-31T14:39:16;21.98;;;12.30;;
22270;SDS011;11304;53.520;10.104;2022-10-31T14:44:34;21.65;;;12.05;;
22270;SDS011;11304;53.520;10.104;2022-10-31T14:47:15;20.52;;;12.20;;
22270;SDS011;11304;53.520;10.104;2022-10-31T14:49:48;23.67;;;13.75;;
22270;SDS011;11304;53.520;10.104;2022-10-31T14:52:17;19.85;;;13.18;;
22270;SDS011;11304;53.520;10.104;2022-10-31T14:54:46;17.10;;;12.23;;
22270;SDS011;11304;53.520;10.104;2022-10-31T14:57:35;25.75;;;15.73;;
22270;SDS011;11304;53.520;10.104;2022-10-31T15:00:03;25.27;;;16.33;;
22270;SDS011;11304;53.520;10.104;2022-10-31T15:05:03;28.42;;;17.42;;
22270;SDS011;11304;53.520;10.104;2022-10-31T15:07:32;28.23;;;17.83;;
22270;SDS011;11304;53.520;10.104;2022-10-31T15:10:06;27.63;;;17.02;;
22270;SDS011;11304;53.520;10.104;2022-10-31T15:12:33;24.02;;;15.98;;
22270;SDS011;11304;53.520;10.104;2022-10-31T15:15:12;24.92;;;17.67;;
22270;SDS011;11304;53.520;10.104;2022-10-31T15:18:01;26.13;;;18.17;;
22270;SDS011;11304;53.520;10.104;2022-10-31T15:20:27;25.83;;;17.73;;
22270;SDS011;11304;53.520;10.104;2022-10-31T15:22:57;23.92;;;16.42;;
22270;SDS011;11304;53.520;10.104;2022-10-31T15:25:24;27.08;;;17.60;;
22270;SDS011;11304;53.520;10.104;2022-10-31T15:27:51;31.23;;;18.50;;
22270;SDS011;11304;53.520;10.104;2022-10-31T15:30:19;27.58;;;18.30;;
22270;SDS011;11304;53.520;10.104;2022-10-31T15:32:45;29.50;;;19.08;;
22270;SDS011;11304;53.520;10.104;2022-10-31T15:35:18;23.67;;;17.55;;
22270;SDS011;11304;53.520;10.104;2022-10-31T15:37:45;28.13;;;19.27;;
22270;SDS011;11304;53.520;10.104;2022-10-31T15:40:15;29.40;;;19.30;;
22270;SDS011;11304;53.520;10.104;2022-10-31T15:42:41;32.20;;;20.13;;
22270;SDS011;11304;53.520;10.104;2022-10-31T15:50:05;28.48;;;17.25;;
22270;SDS011;11304;53.520;10.104;2022-10-31T15:57:32;28.45;;;17.52;;
22270;SDS011;11304;53.520;10.104;2022-10-31T15:59:58;28.80;;;17.65;;
22270;SDS011;11304;53.520;10.104;2022-10-31T16:02:25;28.40;;;16.60;;
22270;SDS011;11304;53.520;10.104;2022-10-31T16:04:54;26.58;;;16.50;;
22270;SDS011;11304;53.520;10.104;2022-10-31T16:07:21;26.58;;;16.10;;
22270;SDS011;11304;53.520;10.104;2022-10-31T16:09:51;25.90;;;15.95;;
22270;SDS011;11304;53.520;10.104;2022-10-31T16:12:17;27.88;;;16.80;;
22270;SDS011;11304;53.520;10.104;2022-10-31T16:14:43;28.48;;;16.20;;
22270;SDS011;11304;53.520;10.104;2022-10-31T16:17:16;34.03;;;17.55;;
22270;SDS011;11304;53.520;10.104;2022-10-31T16:22:22;38.42;;;19.00;;
22270;SDS011;11304;53.520;10.104;2022-10-31T16:24:49;34.60;;;18.95;;
22270;SDS011;11304;53.520;10.104;2022-10-31T16:27:20;35.25;;;19.05;;
22270;SDS011;11304;53.520;10.104;2022-10-31T16:29:53;35.15;;;18.85;;
22270;SDS011;11304;53.520;10.104;2022-10-31T16:32:34;34.92;;;19.25;;
22270;SDS011;11304;53.520;10.104;2022-10-31T16:37:39;37.55;;;19.27;;
22270;SDS011;11304;53.520;10.104;2022-10-31T16:40:05;31.13;;;17.92;;
22270;SDS011;11304;53.520;10.104;2022-10-31T16:42:32;32.03;;;18.75;;
22270;SDS011;11304;53.520;10.104;2022-10-31T16:44:58;31.08;;;17.60;;
22270;SDS011;11304;53.520;10.104;2022-10-31T16:47:24;36.08;;;17.80;;
22270;SDS011;11304;53.520;10.104;2022-10-31T16:49:50;32.13;;;18.85;;
22270;SDS011;11304;53.520;10.104;2022-10-31T16:52:17;36.40;;;18.55;;
22270;SDS011;11304;53.520;10.104;2022-10-31T16:54:43;34.25;;;19.00;;
22270;SDS011;11304;53.520;10.104;2022-10-31T16:57:13;37.42;;;19.33;;
22270;SDS011;11304;53.520;10.104;2022-10-31T16:59:40;34.25;;;18.33;;
22270;SDS011;11304;53.520;10.104;2022-10-31T17:02:09;31.45;;;19.45;;
22270;SDS011;11304;53.520;10.104;2022-10-31T17:04:37;30.75;;;18.35;;
22270;SDS011;11304;53.520;10.104;2022-10-31T17:07:03;38.92;;;19.58;;
22270;SDS011;11304;53.520;10.104;2022-10-31T17:09:29;35.38;;;19.80;;
22270;SDS011;11304;53.520;10.104;2022-10-31T17:11:55;32.33;;;18.80;;
22270;SDS011;11304;53.520;10.104;2022-10-31T17:14:22;32.28;;;19.70;;